createdAt,value
2023-04-10T00:00:02.977Z,14.70
2023-04-10T00:02:31.675Z,14.38
2023-04-10T00:04:59.689Z,14.82
2023-04-10T00:07:29.310Z,14.90
2023-04-10T00:09:58.524Z,15.10
2023-04-10T00:12:27.671Z,14.35
2023-04-10T00:14:54.123Z,16.42
2023-04-10T00:17:20.653Z,15.65
2023-04-10T00:19:47.364Z,16.20
2023-04-10T00:22:13.924Z,16.05
2023-04-10T00:24:40.412Z,16.13
2023-04-10T00:27:06.992Z,15.23
2023-04-10T00:29:33.607Z,15.90
2023-04-10T00:32:01.697Z,14.80
2023-04-10T00:34:28.144Z,15.95
2023-04-10T00:36:54.605Z,16.92
2023-04-10T00:39:21.222Z,17.67
2023-04-10T00:41:47.918Z,17.83
2023-04-10T00:44:17.207Z,17.40
2023-04-10T00:46:44.074Z,16.90
2023-04-10T00:49:11.878Z,17.25
2023-04-10T00:51:42.030Z,16.98
2023-04-10T00:54:10.348Z,17.63
2023-04-10T00:56:36.858Z,18.08
2023-04-10T00:59:05.746Z,16.60
2023-04-10T01:01:33.910Z,17.10
2023-04-10T01:04:04.800Z,17.73
2023-04-10T01:06:37.600Z,16.98
2023-04-10T01:09:04.222Z,17.15
2023-04-10T01:11:41.266Z,17.88
2023-04-10T01:14:16.437Z,17.38
2023-04-10T01:16:49.948Z,17.45
2023-04-10T01:19:35.272Z,17.90
2023-04-10T01:22:02.650Z,16.65
2023-04-10T01:24:31.853Z,16.50
2023-04-10T01:27:17.443Z,16.98
2023-04-10T01:29:47.820Z,15.75
2023-04-10T01:32:16.876Z,16.02
2023-04-10T01:34:48.053Z,17.45
2023-04-10T01:37:20.295Z,16.45
2023-04-10T01:39:48.583Z,16.67
2023-04-10T01:42:17.876Z,17.00
2023-04-10T01:44:46.695Z,15.20
2023-04-10T01:47:14.607Z,14.93
2023-04-10T01:49:45.347Z,14.52
2023-04-10T01:52:15.574Z,15.15
2023-04-10T01:54:48.494Z,16.27
2023-04-10T01:57:21.903Z,15.20
2023-04-10T01:59:54.464Z,15.27
2023-04-10T02:02:21.104Z,15.75
2023-04-10T02:04:51.570Z,15.85
2023-04-10T02:07:38.615Z,15.90
2023-04-10T02:10:13.229Z,15.52
2023-04-10T02:12:43.069Z,16.50
2023-04-10T02:15:10.511Z,15.75
2023-04-10T02:17:38.959Z,14.63
2023-04-10T02:20:07.785Z,15.63
2023-04-10T02:22:34.428Z,15.70
2023-04-10T02:25:01.044Z,15.60
2023-04-10T02:27:31.042Z,15.25
2023-04-10T02:29:58.709Z,16.40
2023-04-10T02:32:26.347Z,15.95
2023-04-10T02:34:52.949Z,15.45
2023-04-10T02:37:19.403Z,16.02
2023-04-10T02:39:46.161Z,16.17
2023-04-10T02:42:14.956Z,16.27
2023-04-10T02:44:41.567Z,16.98
2023-04-10T02:47:08.548Z,17.95
2023-04-10T02:49:39.323Z,16.85
2023-04-10T02:52:12.484Z,16.85
2023-04-10T02:54:41.051Z,16.40
2023-04-10T02:57:07.630Z,16.20
2023-04-10T02:59:34.291Z,17.13
2023-04-10T03:02:02.798Z,17.98
2023-04-10T03:04:32.966Z,17.00
2023-04-10T03:07:00.145Z,16.17
2023-04-10T03:09:26.682Z,17.13
2023-04-10T03:11:54.215Z,16.35
2023-04-10T03:14:20.904Z,17.38
2023-04-10T03:16:48.119Z,16.48
2023-04-10T03:19:14.861Z,17.33
2023-04-10T03:21:41.518Z,17.45
2023-04-10T03:24:09.514Z,18.33
2023-04-10T03:26:36.023Z,18.20
2023-04-10T03:29:02.582Z,18.38
2023-04-10T03:31:30.178Z,17.25
2023-04-10T03:33:59.134Z,18.88
2023-04-10T03:36:25.706Z,19.30
2023-04-10T03:38:53.440Z,17.38
2023-04-10T03:41:19.984Z,18.92
2023-04-10T03:43:46.774Z,18.77
2023-04-10T03:46:13.390Z,17.52
2023-04-10T03:48:42.642Z,17.92
2023-04-10T03:51:10.278Z,19.08
2023-04-10T03:53:36.862Z,18.63
2023-04-10T03:56:08.351Z,19.75
2023-04-10T03:58:35.846Z,17.73
2023-04-10T04:01:02.658Z,18.98
2023-04-10T04:03:36.284Z,20.02
2023-04-10T04:06:27.185Z,20.10
2023-04-10T04:09:29.297Z,19.02
2023-04-10T04:12:16.018Z,19.80
2023-04-10T04:14:45.264Z,19.13
2023-04-10T04:17:25.808Z,19.08
2023-04-10T04:20:09.031Z,20.38
2023-04-10T04:22:50.836Z,19.70
2023-04-10T04:25:40.670Z,19.30
2023-04-10T04:28:22.375Z,18.70
2023-04-10T04:31:11.644Z,18.30
2023-04-10T04:33:48.537Z,18.60
2023-04-10T04:36:33.879Z,19.35
2023-04-10T04:39:22.587Z,18.02
2023-04-10T04:42:12.001Z,17.98
2023-04-10T04:45:08.250Z,17.25
2023-04-10T04:47:53.969Z,17.23
2023-04-10T04:50:27.465Z,17.10
2023-04-10T04:53:23.007Z,16.35
2023-04-10T04:56:06.330Z,17.10
2023-04-10T04:58:45.278Z,17.58
2023-04-10T05:01:28.386Z,17.15
2023-04-10T05:04:13.959Z,19.33
2023-04-10T05:07:08.667Z,18.90
2023-04-10T05:09:37.960Z,20.60
2023-04-10T05:12:13.648Z,21.05
2023-04-10T05:14:46.306Z,24.10
2023-04-10T05:20:19.068Z,22.33
2023-04-10T05:25:39.272Z,21.00
2023-04-10T05:28:36.466Z,20.55
2023-04-10T05:31:21.409Z,20.58
2023-04-10T05:34:00.460Z,21.02
2023-04-10T05:36:36.784Z,20.50
2023-04-10T05:39:29.154Z,20.30
2023-04-10T05:42:14.338Z,20.40
2023-04-10T05:44:59.035Z,20.25
2023-04-10T05:47:51.552Z,20.30
2023-04-10T05:50:30.405Z,18.73
2023-04-10T05:53:20.376Z,20.65
2023-04-10T05:56:02.347Z,19.90
2023-04-10T05:58:42.366Z,20.85
2023-04-10T06:01:32.010Z,20.13
2023-04-10T06:04:03.021Z,20.98
2023-04-10T06:06:30.164Z,19.90
2023-04-10T06:08:57.163Z,21.33
2023-04-10T06:11:24.130Z,20.00
2023-04-10T06:13:54.225Z,19.45
2023-04-10T06:16:27.887Z,20.15
2023-04-10T06:18:54.817Z,19.55
2023-04-10T06:21:23.828Z,20.52
2023-04-10T06:23:51.242Z,19.38
2023-04-10T06:26:18.465Z,20.13
2023-04-10T06:28:45.076Z,19.45
2023-04-10T06:31:14.409Z,19.58
2023-04-10T06:33:41.294Z,19.15
2023-04-10T06:36:09.915Z,19.60
2023-04-10T06:38:42.818Z,18.58
2023-04-10T06:41:09.638Z,17.92
2023-04-10T06:43:36.924Z,18.10
2023-04-10T06:46:04.581Z,18.45
2023-04-10T06:48:31.773Z,17.63
2023-04-10T06:51:00.533Z,18.27
2023-04-10T06:53:27.406Z,19.90
2023-04-10T06:55:54.252Z,19.05
2023-04-10T06:58:21.007Z,22.20
2023-04-10T07:00:47.672Z,20.40
2023-04-10T07:03:14.189Z,19.80
2023-04-10T07:05:42.304Z,18.77
2023-04-10T07:08:09.214Z,18.13
2023-04-10T07:10:36.003Z,18.48
2023-04-10T07:13:03.006Z,17.88
2023-04-10T07:15:29.460Z,17.75
2023-04-10T07:17:56.450Z,18.75
2023-04-10T07:20:23.032Z,18.38
2023-04-10T07:22:49.607Z,17.67
2023-04-10T07:25:16.636Z,17.73
2023-04-10T07:27:43.105Z,17.55
2023-04-10T07:30:10.853Z,17.27
2023-04-10T07:32:39.980Z,17.48
2023-04-10T07:35:07.290Z,16.30
2023-04-10T07:37:33.941Z,16.00
2023-04-10T07:40:02.744Z,15.90
2023-04-10T07:42:29.617Z,15.93
2023-04-10T07:44:56.250Z,15.93
2023-04-10T07:47:22.760Z,16.63
2023-04-10T07:49:49.462Z,15.98
2023-04-10T07:52:16.232Z,16.60
2023-04-10T07:54:44.192Z,16.17
2023-04-10T07:57:10.811Z,16.13
2023-04-10T07:59:37.259Z,16.35
2023-04-10T08:02:03.805Z,16.25
2023-04-10T08:04:31.179Z,15.40
2023-04-10T08:06:57.883Z,16.35
2023-04-10T08:09:24.438Z,15.18
2023-04-10T08:11:51.346Z,16.23
2023-04-10T08:14:18.302Z,15.05
2023-04-10T08:16:45.255Z,14.95
2023-04-10T08:19:12.017Z,14.85
2023-04-10T08:21:38.625Z,15.10
2023-04-10T08:24:05.301Z,14.82
2023-04-10T08:26:32.025Z,14.32
2023-04-10T08:28:59.803Z,13.45
2023-04-10T08:31:28.038Z,12.63
2023-04-10T08:33:55.223Z,13.35
2023-04-10T08:36:22.087Z,11.68
2023-04-10T08:38:48.709Z,11.88
2023-04-10T08:41:16.108Z,10.13
2023-04-10T08:43:43.575Z,10.75
2023-04-10T08:46:10.106Z,11.60
2023-04-10T08:48:44.165Z,11.40
2023-04-10T08:51:19.489Z,11.02
2023-04-10T08:53:48.545Z,11.50
2023-04-10T08:56:16.181Z,11.15
2023-04-10T08:58:43.099Z,11.13
2023-04-10T09:01:11.591Z,11.68
2023-04-10T09:03:38.503Z,11.05
2023-04-10T09:06:05.847Z,10.48
2023-04-10T09:08:32.707Z,9.32
2023-04-10T09:10:59.208Z,9.15
2023-04-10T09:13:35.271Z,8.50
2023-04-10T09:16:02.063Z,8.10
2023-04-10T09:18:48.497Z,7.53
2023-04-10T09:21:16.393Z,8.52
2023-04-10T09:23:44.687Z,9.85
2023-04-10T09:26:22.298Z,9.98
2023-04-10T09:29:05.349Z,11.02
2023-04-10T09:31:32.281Z,9.20
2023-04-10T09:34:12.098Z,9.18
2023-04-10T09:36:38.842Z,9.80
2023-04-10T09:39:05.924Z,8.88
2023-04-10T09:41:32.882Z,9.27
2023-04-10T09:44:07.852Z,8.45
2023-04-10T09:46:35.132Z,8.77
2023-04-10T09:49:04.843Z,9.18
2023-04-10T09:51:31.898Z,9.20
2023-04-10T09:53:59.027Z,9.82
2023-04-10T09:56:27.846Z,9.55
2023-04-10T09:58:56.215Z,9.70
2023-04-10T10:01:23.077Z,9.80
2023-04-10T10:03:49.662Z,9.00
2023-04-10T10:06:16.364Z,8.95
2023-04-10T10:08:42.930Z,9.68
2023-04-10T10:11:12.195Z,9.95
2023-04-10T10:13:45.513Z,8.07
2023-04-10T10:16:15.558Z,8.63
2023-04-10T10:18:45.817Z,9.05
2023-04-10T10:21:13.770Z,8.65
2023-04-10T10:23:40.592Z,8.02
2023-04-10T10:26:07.786Z,7.78
2023-04-10T10:28:35.896Z,8.13
2023-04-10T10:31:03.334Z,8.55
2023-04-10T10:33:30.012Z,7.68
2023-04-10T10:36:00.140Z,6.72
2023-04-10T10:38:27.224Z,5.78
2023-04-10T10:40:53.690Z,5.93
2023-04-10T10:43:38.004Z,6.68
2023-04-10T10:46:09.344Z,6.70
2023-04-10T10:48:35.924Z,6.22
2023-04-10T10:51:03.556Z,5.85
2023-04-10T10:53:40.681Z,5.88
2023-04-10T10:56:19.040Z,5.65
2023-04-10T10:58:57.540Z,4.55
2023-04-10T11:01:24.394Z,5.95
2023-04-10T11:03:51.311Z,6.10
2023-04-10T11:06:19.549Z,4.10
2023-04-10T11:08:50.056Z,4.70
2023-04-10T11:11:23.542Z,4.70
2023-04-10T11:13:51.013Z,4.45
2023-04-10T11:16:18.297Z,4.15
2023-04-10T11:18:44.844Z,4.25
2023-04-10T11:21:11.400Z,4.75
2023-04-10T11:23:38.939Z,4.95
2023-04-10T11:26:06.375Z,4.90
2023-04-10T11:28:33.488Z,4.72
2023-04-10T11:31:19.600Z,4.75
2023-04-10T11:33:52.036Z,4.82
2023-04-10T11:36:18.922Z,4.40
2023-04-10T11:38:58.361Z,4.30
2023-04-10T11:41:31.879Z,4.90
2023-04-10T11:43:59.505Z,4.68
2023-04-10T11:46:26.345Z,4.75
2023-04-10T11:48:54.335Z,4.68
2023-04-10T11:51:21.696Z,4.20
2023-04-10T11:53:48.262Z,3.97
2023-04-10T11:56:15.697Z,3.15
2023-04-10T11:58:42.383Z,3.17
2023-04-10T12:01:14.223Z,3.00
2023-04-10T12:03:44.128Z,3.60
2023-04-10T12:06:12.062Z,3.30
2023-04-10T12:08:42.301Z,3.35
2023-04-10T12:11:10.009Z,3.35
2023-04-10T12:13:37.031Z,3.65
2023-04-10T12:16:04.788Z,3.00
2023-04-10T12:18:31.432Z,2.80
2023-04-10T12:20:59.282Z,3.42
2023-04-10T12:23:27.044Z,3.13
2023-04-10T12:25:54.340Z,3.08
2023-04-10T12:28:21.526Z,3.20
2023-04-10T12:30:55.108Z,3.30
2023-04-10T12:33:22.641Z,2.72
2023-04-10T12:35:49.368Z,3.40
2023-04-10T12:38:16.270Z,3.67
2023-04-10T12:40:58.612Z,3.63
2023-04-10T12:43:32.857Z,3.38
2023-04-10T12:45:59.513Z,3.53
2023-04-10T12:48:26.170Z,3.60
2023-04-10T12:50:52.877Z,3.50
2023-04-10T12:53:19.302Z,3.28
2023-04-10T12:55:59.411Z,4.03
2023-04-10T12:58:30.949Z,4.03
2023-04-10T13:00:58.767Z,4.30
2023-04-10T13:03:25.785Z,4.15
2023-04-10T13:05:53.515Z,4.00
2023-04-10T13:08:20.986Z,4.30
2023-04-10T13:10:47.539Z,4.40
2023-04-10T13:13:14.266Z,4.47
2023-04-10T13:15:40.914Z,3.90
2023-04-10T13:18:07.858Z,4.55
2023-04-10T13:20:36.101Z,4.15
2023-04-10T13:23:05.350Z,3.83
2023-04-10T13:25:33.862Z,3.83
2023-04-10T13:28:01.634Z,4.22
2023-04-10T13:30:28.829Z,4.28
2023-04-10T13:32:55.583Z,4.60
2023-04-10T13:35:22.400Z,4.25
2023-04-10T13:37:53.038Z,4.38
2023-04-10T13:40:22.289Z,3.72
2023-04-10T13:42:48.806Z,4.07
2023-04-10T13:45:15.445Z,4.03
2023-04-10T13:47:42.205Z,4.00
2023-04-10T13:50:08.898Z,4.07
2023-04-10T13:52:35.453Z,4.00
2023-04-10T13:55:02.324Z,4.35
2023-04-10T13:57:28.989Z,3.97
2023-04-10T13:59:55.599Z,4.03
2023-04-10T14:02:22.193Z,3.95
2023-04-10T14:04:48.844Z,4.05
2023-04-10T14:07:15.300Z,3.75
2023-04-10T14:09:41.818Z,3.90
2023-04-10T14:12:08.366Z,4.03
2023-04-10T14:14:35.020Z,3.60
2023-04-10T14:17:01.518Z,3.95
2023-04-10T14:19:28.085Z,4.15
2023-04-10T14:21:54.795Z,4.20
2023-04-10T14:24:21.712Z,3.90
2023-04-10T14:26:48.188Z,3.85
2023-04-10T14:29:14.813Z,4.03
2023-04-10T14:31:56.636Z,3.90
2023-04-10T14:34:24.057Z,3.92
2023-04-10T14:36:55.541Z,3.97
2023-04-10T14:39:25.000Z,4.10
2023-04-10T14:41:51.867Z,4.18
2023-04-10T14:44:18.454Z,3.90
2023-04-10T14:46:45.935Z,3.78
2023-04-10T14:49:12.958Z,4.28
2023-04-10T14:51:39.501Z,4.35
2023-04-10T14:54:06.126Z,4.30
2023-04-10T14:56:33.635Z,3.92
2023-04-10T14:59:00.174Z,3.90
2023-04-10T15:01:26.672Z,4.32
2023-04-10T15:03:53.735Z,5.03
2023-04-10T15:06:23.824Z,4.07
2023-04-10T15:08:50.662Z,4.15
2023-04-10T15:11:17.175Z,4.80
2023-04-10T15:13:43.672Z,4.10
2023-04-10T15:16:10.106Z,4.00
2023-04-10T15:18:36.570Z,3.90
2023-04-10T15:21:03.480Z,4.20
2023-04-10T15:23:30.000Z,3.78
2023-04-10T15:25:56.733Z,3.80
2023-04-10T15:28:23.524Z,3.88
2023-04-10T15:30:50.365Z,19.27
2023-04-10T15:33:17.127Z,4.13
2023-04-10T15:35:47.652Z,3.63
2023-04-10T15:38:14.181Z,3.28
2023-04-10T15:40:40.706Z,3.17
2023-04-10T15:43:07.379Z,3.30
2023-04-10T15:45:35.505Z,3.67
2023-04-10T15:48:05.002Z,3.40
2023-04-10T15:50:33.686Z,3.22
2023-04-10T15:53:00.191Z,4.18
2023-04-10T15:55:27.111Z,3.00
2023-04-10T15:57:53.573Z,3.70
2023-04-10T16:00:20.780Z,3.50
2023-04-10T16:02:48.416Z,3.95
2023-04-10T16:05:18.872Z,3.50
2023-04-10T16:07:46.688Z,3.28
2023-04-10T16:10:13.562Z,3.53
2023-04-10T16:12:40.662Z,3.40
2023-04-10T16:18:01.403Z,3.65
2023-04-10T16:20:27.840Z,3.53
2023-04-10T16:22:54.920Z,3.22
2023-04-10T16:25:25.008Z,3.17
2023-04-10T16:27:51.633Z,3.30
2023-04-10T16:30:18.312Z,3.60
2023-04-10T16:32:46.267Z,3.67
2023-04-10T16:35:13.965Z,3.13
2023-04-10T16:37:40.489Z,3.92
2023-04-10T16:40:07.791Z,3.85
2023-04-10T16:42:34.390Z,4.03
2023-04-10T16:45:02.144Z,3.72
2023-04-10T16:47:29.886Z,3.92
2023-04-10T16:49:57.666Z,4.10
2023-04-10T16:52:24.144Z,4.40
2023-04-10T16:54:52.157Z,4.15
2023-04-10T16:57:18.708Z,3.90
2023-04-10T16:59:45.375Z,4.07
2023-04-10T17:02:12.835Z,3.90
2023-04-10T17:04:39.967Z,4.55
2023-04-10T17:07:06.423Z,4.22
2023-04-10T17:09:36.106Z,4.88
2023-04-10T17:12:02.650Z,5.30
2023-04-10T17:14:30.468Z,5.07
2023-04-10T17:16:57.330Z,4.90
2023-04-10T17:19:24.085Z,5.45
2023-04-10T17:21:52.175Z,4.18
2023-04-10T17:24:21.154Z,5.13
2023-04-10T17:26:47.674Z,20.83
2023-04-10T17:29:14.368Z,7.50
2023-04-10T17:31:41.151Z,7.03
2023-04-10T17:34:08.167Z,5.35
2023-04-10T17:36:36.158Z,7.15
2023-04-10T17:39:03.244Z,7.82
2023-04-10T17:41:30.375Z,22.13
2023-04-10T17:43:56.984Z,11.93
2023-04-10T17:46:24.906Z,10.55
2023-04-10T17:48:51.401Z,4.93
2023-04-10T17:51:18.218Z,5.43
2023-04-10T17:53:47.565Z,5.68
2023-04-10T17:56:19.385Z,5.40
2023-04-10T17:58:47.996Z,5.55
2023-04-10T18:01:21.569Z,5.80
2023-04-10T18:03:48.669Z,5.40
2023-04-10T18:06:15.448Z,5.75
2023-04-10T18:08:42.059Z,5.88
2023-04-10T18:11:09.658Z,6.45
2023-04-10T18:13:36.388Z,5.85
2023-04-10T18:16:02.794Z,6.05
2023-04-10T18:18:29.487Z,6.50
2023-04-10T18:20:55.957Z,6.15
2023-04-10T18:23:24.143Z,5.65
2023-04-10T18:25:54.426Z,5.78
2023-04-10T18:28:23.714Z,5.80
2023-04-10T18:30:50.906Z,5.70
2023-04-10T18:33:22.486Z,5.43
2023-04-10T18:35:52.837Z,5.70
2023-04-10T18:38:19.547Z,6.03
2023-04-10T18:40:46.368Z,6.28
2023-04-10T18:43:12.811Z,6.25
2023-04-10T18:45:40.060Z,5.88
2023-04-10T18:48:07.070Z,5.97
2023-04-10T18:50:38.234Z,5.25
2023-04-10T18:53:04.868Z,5.43
2023-04-10T18:55:31.264Z,5.60
2023-04-10T18:57:58.351Z,5.80
2023-04-10T19:00:24.917Z,5.30
2023-04-10T19:02:51.751Z,5.43
2023-04-10T19:05:19.200Z,5.57
2023-04-10T19:07:56.818Z,5.15
2023-04-10T19:10:27.684Z,5.78
2023-04-10T19:12:56.077Z,6.03
2023-04-10T19:15:22.894Z,5.82
2023-04-10T19:17:54.696Z,5.50
2023-04-10T19:20:50.106Z,5.70
2023-04-10T19:23:12.051Z,5.93
2023-04-10T19:25:39.836Z,6.47
2023-04-10T19:28:06.703Z,7.15
2023-04-10T19:30:39.218Z,6.55
2023-04-10T19:33:05.929Z,6.47
2023-04-10T19:35:33.558Z,7.55
2023-04-10T19:38:00.072Z,8.32
2023-04-10T19:40:29.768Z,8.85
2023-04-10T19:42:57.437Z,8.77
2023-04-10T19:45:27.602Z,7.88
2023-04-10T19:47:54.142Z,7.05
2023-04-10T19:50:20.925Z,6.75
2023-04-10T19:52:47.345Z,7.57
2023-04-10T19:55:14.009Z,8.52
2023-04-10T19:57:40.532Z,10.60
2023-04-10T20:00:08.085Z,8.63
2023-04-10T20:02:41.506Z,12.93
2023-04-10T20:05:09.246Z,16.38
2023-04-10T20:07:36.291Z,13.85
2023-04-10T20:10:04.611Z,8.35
2023-04-10T20:12:33.121Z,7.70
2023-04-10T20:15:00.030Z,7.72
2023-04-10T20:17:26.996Z,8.20
2023-04-10T20:19:53.473Z,8.50
2023-04-10T20:22:47.347Z,7.93
2023-04-10T20:25:15.529Z,7.18
2023-04-10T20:27:41.924Z,7.28
2023-04-10T20:30:10.161Z,6.35
2023-04-10T20:32:36.930Z,8.13
2023-04-10T20:35:04.148Z,7.30
2023-04-10T20:37:31.704Z,6.65
2023-04-10T20:40:00.775Z,7.32
2023-04-10T20:42:27.250Z,6.70
2023-04-10T20:44:55.430Z,6.10
2023-04-10T20:47:21.859Z,7.03
2023-04-10T20:49:49.247Z,7.00
2023-04-10T20:52:16.850Z,6.40
2023-04-10T20:54:43.417Z,6.25
2023-04-10T20:57:09.886Z,6.35
2023-04-10T20:59:37.019Z,6.53
2023-04-10T21:02:03.923Z,6.78
2023-04-10T21:04:30.744Z,6.97
2023-04-10T21:06:57.855Z,6.13
2023-04-10T21:09:26.639Z,6.35
2023-04-10T21:11:53.833Z,6.45
2023-04-10T21:14:21.763Z,5.85
2023-04-10T21:16:48.462Z,6.18
2023-04-10T21:19:14.938Z,5.95
2023-04-10T21:21:42.400Z,6.18
2023-04-10T21:24:08.829Z,5.43
2023-04-10T21:26:35.355Z,5.90
2023-04-10T21:29:02.121Z,5.93
2023-04-10T21:31:28.638Z,6.03
2023-04-10T21:33:55.891Z,6.28
2023-04-10T21:36:22.624Z,5.95
2023-04-10T21:38:49.480Z,5.93
2023-04-10T21:41:15.858Z,6.22
2023-04-10T21:43:43.580Z,6.70
2023-04-10T21:46:10.963Z,6.88
2023-04-10T21:48:37.580Z,6.07
2023-04-10T21:51:04.483Z,6.53
2023-04-10T21:53:31.011Z,6.38
2023-04-10T21:55:57.774Z,6.80
2023-04-10T21:58:24.535Z,6.38
2023-04-10T22:00:51.715Z,6.35
2023-04-10T22:03:20.320Z,6.50
2023-04-10T22:05:48.916Z,6.30
2023-04-10T22:08:15.983Z,5.93
2023-04-10T22:10:45.382Z,6.20
2023-04-10T22:13:19.760Z,6.78
2023-04-10T22:15:54.467Z,5.68
2023-04-10T22:18:20.907Z,5.68
2023-04-10T22:20:47.353Z,5.30
2023-04-10T22:23:13.966Z,6.10
2023-04-10T22:25:40.566Z,6.10
2023-04-10T22:28:07.192Z,5.95
2023-04-10T22:30:34.571Z,5.85
2023-04-10T22:33:01.147Z,5.82
2023-04-10T22:35:27.877Z,6.63
2023-04-10T22:37:54.438Z,6.05
2023-04-10T22:40:20.892Z,5.40
2023-04-10T22:42:48.493Z,6.15
2023-04-10T22:45:15.806Z,5.60
2023-04-10T22:47:42.787Z,5.78
2023-04-10T22:50:09.267Z,5.80
2023-04-10T22:52:36.436Z,5.63
2023-04-10T22:55:03.584Z,5.75
2023-04-10T22:57:30.595Z,5.88
2023-04-10T22:59:59.342Z,6.47
2023-04-10T23:02:27.791Z,5.78
2023-04-10T23:04:54.557Z,5.93
2023-04-10T23:07:21.165Z,5.97
2023-04-10T23:09:47.828Z,5.85
2023-04-10T23:12:17.107Z,6.30
2023-04-10T23:14:43.727Z,6.22
2023-04-10T23:17:10.570Z,5.82
2023-04-10T23:19:37.110Z,6.10
2023-04-10T23:22:03.662Z,6.40
2023-04-10T23:24:32.987Z,5.68
2023-04-10T23:26:59.445Z,6.22
2023-04-10T23:29:26.103Z,5.88
2023-04-10T23:31:52.570Z,6.05
2023-04-10T23:34:20.756Z,5.63
2023-04-10T23:36:47.447Z,5.88
2023-04-10T23:39:13.894Z,5.60
2023-04-10T23:41:40.400Z,5.88
2023-04-10T23:44:07.041Z,5.38
2023-04-10T23:46:33.638Z,5.30
2023-04-10T23:49:02.896Z,5.55
2023-04-10T23:51:31.941Z,5.75
2023-04-10T23:53:58.907Z,4.90
2023-04-10T23:56:29.212Z,5.80
2023-04-10T23:58:56.505Z,4.97
